SPMWB EVRS-EVRA
Flight info
| Callsign | SPMWB |
|---|---|
| Flight time | 0h -8m |
| Altitude | 2000 |
| Route | SARPS |
| Aircraft | C172/L-SDY/C |
Departure
| Time | 2026-04-24 17:06 |
|---|---|
| Airport | Spilve Aerodrome (EVRS) |
Arrival
| Time | 2026-04-24 16:58 |
|---|---|
| Airport | Riga International Airport (EVRA) |
| Time | Latitude | Longitude | Altitude | Speed | Heading |
|---|---|---|---|---|---|
| 2026-04-24 16:57 | 56.97970 | 24.07497 | 9 ft | 0 kts | 79° |
| 2026-04-24 16:58 | 56.97970 | 24.07503 | 9 ft | 4 kts | 92° |
| 2026-04-24 16:58 | 56.97942 | 24.07641 | 9 ft | 16 kts | 99° |
| 2026-04-24 16:58 | 56.97974 | 24.07843 | 9 ft | 17 kts | 66° |
| 2026-04-24 16:59 | 56.98052 | 24.08019 | 9 ft | 22 kts | 31° |
| 2026-04-24 16:59 | 56.98180 | 24.08153 | 9 ft | 26 kts | 20° |
| 2026-04-24 16:59 | 56.98414 | 24.08221 | 9 ft | 0 kts | 8° |
| 2026-04-24 17:03 | 56.98416 | 24.08222 | 9 ft | 3 kts | 8° |
| 2026-04-24 17:03 | 56.98508 | 24.08216 | 9 ft | 23 kts | 334° |
| 2026-04-24 17:03 | 56.98638 | 24.08077 | 9 ft | 20 kts | 326° |
| 2026-04-24 17:04 | 56.98715 | 24.07984 | 8 ft | 0 kts | 329° |
| 2026-04-24 17:04 | 56.98781 | 24.07911 | 7 ft | 0 kts | 327° |
| 2026-04-24 17:05 | 56.98785 | 24.07907 | 7 ft | 7 kts | 327° |
| 2026-04-24 17:05 | 56.98984 | 24.07680 | 9 ft | 59 kts | 329° |
| 2026-04-24 17:05 | 56.99818 | 24.06701 | 393 ft | 73 kts | 337° |
| 2026-04-24 17:06 | 57.00197 | 24.07080 | 592 ft | 77 kts | 92° |
| 2026-04-24 17:06 | 56.99292 | 24.08733 | 688 ft | 113 kts | 141° |
| 2026-04-24 17:06 | 56.98684 | 24.09012 | 969 ft | 86 kts | 211° |
| 2026-04-24 17:07 | 56.98415 | 24.08467 | 1018 ft | 93 kts | 234° |
| 2026-04-24 17:07 | 56.97789 | 24.07194 | 1123 ft | 105 kts | 225° |
| 2026-04-24 17:07 | 56.96679 | 24.05398 | 1150 ft | 106 kts | 219° |
| 2026-04-24 17:08 | 56.95480 | 24.03870 | 1150 ft | 105 kts | 213° |
| 2026-04-24 17:08 | 56.94848 | 24.03187 | 1150 ft | 105 kts | 211° |
| 2026-04-24 17:08 | 56.94222 | 24.02502 | 1144 ft | 105 kts | 202° |
| 2026-04-24 17:09 | 56.92792 | 24.02174 | 1150 ft | 105 kts | 189° |
| 2026-04-24 17:09 | 56.91341 | 24.01844 | 1152 ft | 105 kts | 189° |
| 2026-04-24 17:10 | 56.90618 | 24.01674 | 1089 ft | 102 kts | 190° |
| 2026-04-24 17:10 | 56.88553 | 24.01031 | 914 ft | 100 kts | 192° |
| 2026-04-24 17:11 | 56.87817 | 23.98525 | 932 ft | 85 kts | 271° |
| 2026-04-24 17:12 | 56.89677 | 23.96667 | 254 ft | 73 kts | 4° |